Aviation Digital Data Service (ADDS)

Output produced by METARs form (1207 UTC 16 July 2019)
found at http://www.aviationweather.gov/metar/data/
 
TAF HBBA 161100Z 1612/1718 18010G20KT 8000 FEW30 
     BECMG 1617/1619 00000KT CAVOK 
     BECMG 1702/1704 36002KT 
     BECMG 1707/1709 5000 HZ 
     BECMG 1710/1712 18010G15KT 7000 FEW030 SCT100